Aviation Digital Data Service (ADDS)

Output produced by METARs form (0428 UTC 22 April 2018)
found at http://aviationweather.gov/adds/metars/
 
METAR text: KTRK 220415Z AUTO 21004KT 10SM CLR 07/03 A3023 RMK AO2
Conditions at: KTRK (TRUCKEE TAHOE , CA, US) observed 0415 UTC 22 April 2018
Temperature: 7.0°C (45°F)
Dewpoint: 3.0°C (37°F) [RH = 76%]
Pressure (altimeter): 30.23 inches Hg (1023.8 mb)
Winds: from the SSW (210 degrees) at 5 MPH (4 knots; 2.1 m/s)
Visibility: 10 or more miles (16+ km)
Ceiling: at least 12,000 feet AGL
Clouds: sky clear below 12,000 feet AGL
Weather: automated observation with no human augmentation;
there may or may not be significant weather present at this time

Forecast for: KTRK (TRUCKEE TAHOE , CA, US)
Text: KTRK 212320Z 2200/2224 21008KT P6SM SCT050
Forecast period: 0000 to 0300 UTC 22 April 2018
Forecast type: FROM: standard forecast or significant change
Winds: from the SSW (210 degrees) at 9 MPH (8 knots; 4.2 m/s)
Visibility: 6 or more miles (10+ km)
Clouds: scattered clouds at 5000 feet AGL
Weather: no significant weather forecast for this period
Forecast for: KTRK (TRUCKEE TAHOE , CA, US)
Text: KTRK 212320Z 2200/2224 21008KT P6SM SCT050
Forecast period: 0000 to 0300 UTC 22 April 2018
Forecast type: FROM: standard forecast or significant change
Winds: from the SSW (210 degrees) at 9 MPH (8 knots; 4.2 m/s)
Visibility: 6 or more miles (10+ km)
Clouds: scattered clouds at 5000 feet AGL
Weather: no significant weather forecast for this period
Forecast for: KTRK (TRUCKEE TAHOE , CA, US)
Text: KTRK 212320Z 2200/2224 21008KT P6SM SCT050
Forecast period: 0300 to 2000 UTC 22 April 2018
Forecast type: FROM: standard forecast or significant change
Winds: variable direction winds at 3 MPH (3 knots; 1.6 m/s)
Visibility: 6 or more miles (10+ km)
Clouds: clear skies
Weather: no significant weather forecast for this period
Forecast for: KTRK (TRUCKEE TAHOE , CA, US)
Text: KTRK 212320Z 2200/2224 21008KT P6SM SCT050
Forecast period: 0300 to 2000 UTC 22 April 2018
Forecast type: FROM: standard forecast or significant change
Winds: variable direction winds at 3 MPH (3 knots; 1.6 m/s)
Visibility: 6 or more miles (10+ km)
Clouds: clear skies
Weather: no significant weather forecast for this period
Forecast for: KTRK (TRUCKEE TAHOE , CA, US)
Text: KTRK 212320Z 2200/2224 21008KT P6SM SCT050
Forecast period: 2000 UTC 22 April 2018 to 0000 UTC 23 April 2018
Forecast type: FROM: standard forecast or significant change
Winds: from the WSW (240 degrees) at 12 MPH (10 knots; 5.2 m/s)
gusting to 21 MPH (18 knots; 9.4 m/s)
Visibility: 6 or more miles (10+ km)
Clouds: clear skies
Weather: no significant weather forecast for this period
Forecast for: KTRK (TRUCKEE TAHOE , CA, US)
Text: KTRK 212320Z 2200/2224 21008KT P6SM SCT050
Forecast period: 2000 UTC 22 April 2018 to 0000 UTC 23 April 2018
Forecast type: FROM: standard forecast or significant change
Winds: from the WSW (240 degrees) at 12 MPH (10 knots; 5.2 m/s)
gusting to 21 MPH (18 knots; 9.4 m/s)
Visibility: 6 or more miles (10+ km)
Clouds: clear skies
Weather: no significant weather forecast for this period